createdAt,value
2019-03-06T00:01:09.894Z,6.60
2019-03-06T00:03:36.154Z,6.60
2019-03-06T00:06:16.640Z,6.60
2019-03-06T00:08:40.732Z,6.60
2019-03-06T00:11:06.869Z,6.70
2019-03-06T00:13:34.280Z,6.70
2019-03-06T00:16:01.422Z,6.70
2019-03-06T00:18:27.689Z,6.80
2019-03-06T00:20:54.164Z,6.80
2019-03-06T00:23:24.710Z,6.80
2019-03-06T00:25:55.312Z,6.90
2019-03-06T00:28:21.713Z,6.80
2019-03-06T00:30:47.825Z,6.70
2019-03-06T00:33:13.845Z,6.70
2019-03-06T00:35:44.971Z,6.60
2019-03-06T00:38:12.341Z,6.60
2019-03-06T00:40:45.398Z,6.60
2019-03-06T00:43:11.577Z,6.60
2019-03-06T00:45:37.637Z,6.60
2019-03-06T00:48:03.743Z,6.50
2019-03-06T00:50:31.793Z,6.60
2019-03-06T00:53:00.556Z,6.40
2019-03-06T00:55:26.699Z,6.50
2019-03-06T00:57:52.918Z,6.50
2019-03-06T01:00:26.678Z,6.50
2019-03-06T01:02:55.930Z,6.50
2019-03-06T01:05:25.526Z,6.50
2019-03-06T01:07:52.739Z,6.50
2019-03-06T01:10:19.027Z,6.50
2019-03-06T01:12:47.526Z,6.50
2019-03-06T01:15:16.062Z,6.50
2019-03-06T01:17:42.121Z,6.60
2019-03-06T01:20:10.125Z,6.60
2019-03-06T01:22:40.382Z,6.50
2019-03-06T01:25:15.872Z,6.50
2019-03-06T01:27:46.881Z,6.60
2019-03-06T01:30:23.230Z,6.50
2019-03-06T01:33:06.491Z,6.50
2019-03-06T01:35:45.245Z,6.40
2019-03-06T01:38:29.383Z,6.50
2019-03-06T01:41:13.995Z,6.30
2019-03-06T01:44:09.700Z,6.30
2019-03-06T01:46:35.774Z,6.40
2019-03-06T01:49:02.170Z,6.50
2019-03-06T01:51:29.264Z,6.50
2019-03-06T01:53:55.563Z,6.40
2019-03-06T01:56:24.114Z,6.40
2019-03-06T01:58:52.239Z,6.50
2019-03-06T02:01:19.717Z,6.50
2019-03-06T02:04:03.509Z,6.50
2019-03-06T02:06:32.015Z,6.50
2019-03-06T02:08:59.354Z,6.50
2019-03-06T02:11:25.508Z,6.40
2019-03-06T02:13:53.562Z,6.40
2019-03-06T02:16:20.049Z,6.40
2019-03-06T02:18:47.555Z,6.40
2019-03-06T02:21:14.262Z,6.30
2019-03-06T02:23:42.209Z,6.40
2019-03-06T02:26:08.477Z,6.60
2019-03-06T02:28:37.802Z,6.70
2019-03-06T02:31:05.061Z,6.70
2019-03-06T02:33:32.309Z,6.70
2019-03-06T02:36:00.530Z,6.60
2019-03-06T02:38:29.556Z,6.60
2019-03-06T02:40:55.947Z,6.50
2019-03-06T02:43:22.511Z,6.60
2019-03-06T02:45:52.339Z,6.60
2019-03-06T02:48:19.765Z,6.50
2019-03-06T02:50:46.496Z,6.60
2019-03-06T02:53:16.706Z,6.60
2019-03-06T02:55:41.994Z,6.60
2019-03-06T02:58:28.062Z,6.70
2019-03-06T03:01:05.002Z,6.70
2019-03-06T03:03:35.875Z,6.80
2019-03-06T03:06:06.713Z,6.70
2019-03-06T03:08:32.889Z,6.70
2019-03-06T03:10:59.292Z,6.70
2019-03-06T03:13:25.345Z,6.80
2019-03-06T03:15:51.778Z,6.70
2019-03-06T03:18:18.004Z,6.80
2019-03-06T03:20:44.303Z,6.80
2019-03-06T03:23:12.482Z,6.80
2019-03-06T03:25:39.038Z,6.80
2019-03-06T03:28:06.276Z,6.80
2019-03-06T03:30:36.654Z,6.80
2019-03-06T03:33:02.797Z,6.80
2019-03-06T03:35:29.185Z,6.80
2019-03-06T03:37:57.456Z,6.80
2019-03-06T03:40:23.556Z,6.80
2019-03-06T03:42:50.792Z,6.80
2019-03-06T03:45:17.123Z,6.80
2019-03-06T03:47:43.275Z,6.80
2019-03-06T03:50:09.675Z,6.80
2019-03-06T03:52:36.191Z,6.80
2019-03-06T03:55:06.087Z,6.80
2019-03-06T03:57:32.312Z,6.80
2019-03-06T03:59:58.773Z,6.80
2019-03-06T04:02:25.366Z,6.80
2019-03-06T04:04:52.384Z,6.70
2019-03-06T04:07:18.514Z,6.80
2019-03-06T04:09:44.714Z,6.80
2019-03-06T04:12:13.938Z,6.80
2019-03-06T04:14:40.065Z,6.80
2019-03-06T04:17:06.405Z,6.70
2019-03-06T04:19:32.561Z,6.80
2019-03-06T04:22:01.291Z,6.80
2019-03-06T04:24:28.469Z,6.70
2019-03-06T04:26:56.536Z,6.70
2019-03-06T04:29:22.730Z,6.70
2019-03-06T04:31:50.787Z,6.70
2019-03-06T04:34:17.975Z,6.70
2019-03-06T04:36:44.480Z,6.70
2019-03-06T04:39:10.781Z,6.70
2019-03-06T04:41:36.914Z,6.60
2019-03-06T04:44:06.484Z,6.60
2019-03-06T04:46:32.599Z,6.70
2019-03-06T04:49:04.607Z,6.70
2019-03-06T04:51:30.252Z,6.70
2019-03-06T04:53:56.520Z,6.60
2019-03-06T04:56:25.138Z,6.60
2019-03-06T04:58:51.224Z,6.60
2019-03-06T05:01:17.456Z,6.60
2019-03-06T05:03:45.677Z,6.60
2019-03-06T05:06:12.193Z,6.60
2019-03-06T05:08:38.389Z,6.50
2019-03-06T05:11:04.825Z,6.50
2019-03-06T05:13:31.692Z,6.50
2019-03-06T05:15:59.296Z,6.40
2019-03-06T05:18:27.503Z,6.50
2019-03-06T05:20:53.835Z,6.50
2019-03-06T05:23:19.997Z,6.40
2019-03-06T05:25:51.266Z,6.40
2019-03-06T05:28:17.540Z,6.50
2019-03-06T05:30:43.867Z,6.50
2019-03-06T05:33:17.780Z,6.40
2019-03-06T05:36:06.540Z,6.40
2019-03-06T05:38:43.516Z,6.40
2019-03-06T05:41:09.587Z,6.40
2019-03-06T05:43:37.573Z,6.40
2019-03-06T05:46:03.794Z,6.40
2019-03-06T05:48:29.819Z,6.30
2019-03-06T05:50:56.278Z,6.30
2019-03-06T05:53:28.290Z,6.30
2019-03-06T05:55:56.737Z,6.30
2019-03-06T05:58:25.788Z,6.30
2019-03-06T06:00:54.090Z,6.30
2019-03-06T06:03:21.560Z,6.30
2019-03-06T06:05:47.691Z,6.30
2019-03-06T06:08:15.967Z,6.20
2019-03-06T06:10:42.437Z,6.20
2019-03-06T06:13:10.621Z,6.20
2019-03-06T06:15:37.838Z,6.20
2019-03-06T06:18:06.276Z,6.20
2019-03-06T06:20:34.353Z,6.20
2019-03-06T06:23:03.128Z,6.20
2019-03-06T06:25:31.190Z,6.20
2019-03-06T06:27:57.586Z,6.20
2019-03-06T06:30:25.117Z,6.20
2019-03-06T06:32:51.364Z,6.20
2019-03-06T06:35:20.397Z,6.30
2019-03-06T06:37:46.473Z,6.30
2019-03-06T06:40:14.953Z,6.40
2019-03-06T06:42:41.025Z,6.40
2019-03-06T06:45:12.793Z,6.40
2019-03-06T06:48:10.648Z,6.50
2019-03-06T06:50:43.399Z,6.40
2019-03-06T06:53:30.709Z,6.50
2019-03-06T06:56:19.944Z,6.50
2019-03-06T06:59:04.888Z,6.50
2019-03-06T07:02:03.654Z,6.50
2019-03-06T07:04:56.345Z,6.50
2019-03-06T07:07:36.430Z,6.50
2019-03-06T07:10:05.888Z,6.50
2019-03-06T07:12:45.863Z,6.50
2019-03-06T07:15:14.079Z,6.60
2019-03-06T07:17:43.072Z,6.60
2019-03-06T07:20:11.562Z,6.70
2019-03-06T07:22:40.038Z,6.70
2019-03-06T07:25:11.038Z,6.70
2019-03-06T07:27:48.123Z,6.80
2019-03-06T07:30:20.278Z,6.80
2019-03-06T07:33:02.715Z,6.90
2019-03-06T07:36:05.061Z,6.90
2019-03-06T07:38:31.776Z,7.00
2019-03-06T07:41:17.806Z,7.10
2019-03-06T07:43:51.397Z,7.10
2019-03-06T07:46:37.482Z,7.20
2019-03-06T07:49:07.965Z,7.20
2019-03-06T07:51:53.521Z,7.30
2019-03-06T07:54:24.726Z,7.30
2019-03-06T07:56:52.774Z,7.40
2019-03-06T07:59:20.359Z,7.50
2019-03-06T08:02:01.679Z,7.60
2019-03-06T08:04:28.285Z,7.70
2019-03-06T08:06:59.188Z,7.80
2019-03-06T08:09:25.366Z,7.80
2019-03-06T08:12:03.167Z,7.80
2019-03-06T08:14:45.884Z,7.80
2019-03-06T08:17:28.815Z,7.90
2019-03-06T08:20:13.418Z,8.00
2019-03-06T08:22:59.149Z,8.10
2019-03-06T08:25:44.132Z,8.20
2019-03-06T08:28:13.719Z,8.20
2019-03-06T08:30:44.533Z,8.20
2019-03-06T08:33:17.967Z,8.30
2019-03-06T08:35:39.243Z,8.30
2019-03-06T08:38:07.427Z,8.40
2019-03-06T08:40:33.485Z,8.50
2019-03-06T08:42:59.973Z,8.60
2019-03-06T08:45:45.540Z,8.80
2019-03-06T08:48:19.859Z,8.90
2019-03-06T08:51:06.453Z,9.00
2019-03-06T08:53:43.565Z,9.20
2019-03-06T08:56:11.867Z,9.40
2019-03-06T08:58:45.867Z,9.40
2019-03-06T09:01:36.524Z,9.40
2019-03-06T09:04:23.248Z,9.40
2019-03-06T09:06:58.186Z,9.60
2019-03-06T09:09:38.618Z,9.80
2019-03-06T09:12:23.339Z,9.90
2019-03-06T09:15:08.701Z,10.00
2019-03-06T09:17:53.699Z,10.10
2019-03-06T09:20:39.992Z,10.20
2019-03-06T09:23:23.467Z,10.30
2019-03-06T09:26:12.058Z,10.40
2019-03-06T09:28:43.108Z,10.50
2019-03-06T09:31:14.371Z,10.60
2019-03-06T09:33:58.934Z,10.70
2019-03-06T09:36:43.365Z,10.70
2019-03-06T09:39:28.493Z,10.70
2019-03-06T09:41:57.943Z,10.70
2019-03-06T09:44:26.752Z,10.70
2019-03-06T09:46:55.170Z,10.70
2019-03-06T09:49:29.345Z,10.60
2019-03-06T09:52:16.428Z,10.50
2019-03-06T09:54:55.042Z,10.60
2019-03-06T09:57:27.259Z,10.80
2019-03-06T09:59:56.848Z,10.80
2019-03-06T10:02:34.107Z,11.00
2019-03-06T10:05:18.996Z,11.20
2019-03-06T10:08:05.119Z,11.30
2019-03-06T10:10:47.599Z,11.40
2019-03-06T10:13:26.755Z,11.50
2019-03-06T10:15:55.414Z,11.50
2019-03-06T10:18:23.564Z,11.50
2019-03-06T10:20:51.771Z,11.50
2019-03-06T10:23:20.844Z,11.50
2019-03-06T10:25:46.929Z,11.70
2019-03-06T10:28:14.409Z,11.80
2019-03-06T10:30:41.599Z,11.90
2019-03-06T10:33:09.780Z,12.00
2019-03-06T10:35:35.983Z,12.00
2019-03-06T10:38:05.327Z,12.20
2019-03-06T10:40:34.452Z,12.30
2019-03-06T10:43:02.985Z,12.30
2019-03-06T10:45:29.296Z,12.40
2019-03-06T10:47:58.904Z,12.40
2019-03-06T10:50:31.557Z,12.60
2019-03-06T10:52:56.382Z,12.80
2019-03-06T10:55:24.674Z,12.90
2019-03-06T10:57:52.208Z,13.00
2019-03-06T11:00:22.656Z,13.10
2019-03-06T11:02:49.255Z,13.20
2019-03-06T11:05:19.443Z,13.30
2019-03-06T11:07:48.273Z,13.40
2019-03-06T11:10:23.770Z,13.70
2019-03-06T11:12:46.168Z,13.80
2019-03-06T11:15:16.489Z,14.00
2019-03-06T11:17:43.285Z,14.30
2019-03-06T11:20:28.563Z,14.60
2019-03-06T11:22:56.381Z,14.70
2019-03-06T11:25:27.905Z,15.20
2019-03-06T11:27:54.381Z,15.40
2019-03-06T11:30:40.100Z,15.70
2019-03-06T11:33:11.022Z,15.90
2019-03-06T11:35:38.145Z,15.90
2019-03-06T11:38:06.177Z,15.80
2019-03-06T11:40:33.746Z,15.90
2019-03-06T11:43:00.229Z,15.90
2019-03-06T11:45:27.348Z,16.10
2019-03-06T11:47:56.135Z,16.00
2019-03-06T11:50:24.089Z,15.70
2019-03-06T11:52:50.322Z,15.50
2019-03-06T11:55:16.891Z,15.70
2019-03-06T11:57:44.096Z,15.80
2019-03-06T12:00:16.088Z,16.00
2019-03-06T12:02:42.378Z,16.20
2019-03-06T12:05:15.072Z,16.30
2019-03-06T12:07:41.142Z,16.50
2019-03-06T12:10:08.535Z,16.70
2019-03-06T12:12:34.912Z,16.90
2019-03-06T12:15:03.679Z,16.80
2019-03-06T12:17:30.964Z,16.60
2019-03-06T12:19:57.165Z,16.50
2019-03-06T12:22:23.341Z,16.30
2019-03-06T12:24:49.450Z,16.20
2019-03-06T12:27:18.656Z,16.10
2019-03-06T12:29:45.134Z,16.00
2019-03-06T12:32:14.620Z,15.90
2019-03-06T12:34:41.224Z,15.80
2019-03-06T12:37:10.400Z,15.70
2019-03-06T12:39:37.913Z,15.60
2019-03-06T12:42:13.928Z,15.50
2019-03-06T12:44:34.029Z,15.40
2019-03-06T12:47:01.478Z,15.30
2019-03-06T12:49:28.025Z,15.20
2019-03-06T12:51:57.995Z,15.10
2019-03-06T12:54:25.696Z,15.10
2019-03-06T12:56:52.419Z,15.00
2019-03-06T12:59:21.948Z,14.90
2019-03-06T13:01:50.202Z,14.80
2019-03-06T13:04:16.478Z,14.80
2019-03-06T13:06:45.132Z,14.80
2019-03-06T13:09:14.731Z,14.80
2019-03-06T13:11:46.695Z,14.80
2019-03-06T13:14:13.280Z,14.80
2019-03-06T13:16:41.092Z,14.80
2019-03-06T13:19:11.118Z,14.80
2019-03-06T13:21:38.126Z,14.80
2019-03-06T13:24:06.944Z,14.80
2019-03-06T13:26:33.459Z,14.80
2019-03-06T13:28:59.856Z,14.80
2019-03-06T13:31:28.420Z,14.80
2019-03-06T13:34:06.063Z,14.80
2019-03-06T13:36:32.319Z,14.80
2019-03-06T13:39:06.284Z,14.80
2019-03-06T13:41:30.215Z,14.80
2019-03-06T13:43:56.441Z,14.80
2019-03-06T13:46:23.797Z,14.80
2019-03-06T13:48:49.983Z,14.90
2019-03-06T13:51:16.180Z,14.90
2019-03-06T13:53:43.228Z,15.00
2019-03-06T13:56:10.701Z,15.10
2019-03-06T13:58:38.659Z,15.30
2019-03-06T14:01:07.014Z,15.50
2019-03-06T14:03:33.177Z,15.60
2019-03-06T14:05:59.429Z,15.70
2019-03-06T14:08:25.676Z,15.70
2019-03-06T14:10:51.781Z,15.70
2019-03-06T14:13:17.973Z,15.60
2019-03-06T14:15:53.595Z,15.60
2019-03-06T14:18:13.825Z,15.70
2019-03-06T14:20:41.012Z,15.80
2019-03-06T14:23:08.095Z,15.80
2019-03-06T14:25:34.188Z,15.90
2019-03-06T14:28:00.386Z,16.20
2019-03-06T14:30:27.850Z,16.50
2019-03-06T14:32:54.204Z,16.70
2019-03-06T14:35:22.147Z,16.90
2019-03-06T14:38:06.745Z,17.10
2019-03-06T14:40:34.710Z,17.20
2019-03-06T14:43:05.434Z,17.20
2019-03-06T14:45:32.046Z,17.40
2019-03-06T14:47:58.987Z,17.50
2019-03-06T14:50:25.649Z,17.50
2019-03-06T14:52:51.966Z,17.50
2019-03-06T14:55:18.916Z,17.50
2019-03-06T14:57:45.281Z,17.60
2019-03-06T15:00:15.433Z,17.70
2019-03-06T15:02:43.123Z,17.70
2019-03-06T15:05:12.318Z,17.60
2019-03-06T15:07:38.484Z,17.60
2019-03-06T15:10:13.277Z,17.50
2019-03-06T15:12:41.275Z,17.40
2019-03-06T15:15:11.466Z,17.20
2019-03-06T15:17:39.786Z,17.10
2019-03-06T15:20:09.692Z,16.90
2019-03-06T15:22:38.565Z,16.80
2019-03-06T15:25:14.267Z,16.70
2019-03-06T15:27:40.478Z,16.60
2019-03-06T15:30:11.725Z,16.50
2019-03-06T15:32:39.236Z,16.30
2019-03-06T15:35:09.545Z,16.20
2019-03-06T15:37:38.133Z,16.20
2019-03-06T15:40:23.300Z,16.10
2019-03-06T15:42:49.979Z,16.00
2019-03-06T15:45:18.117Z,16.00
2019-03-06T15:47:44.717Z,15.90
2019-03-06T15:50:12.846Z,15.90
2019-03-06T15:52:41.073Z,15.80
2019-03-06T15:55:13.071Z,15.80
2019-03-06T15:57:49.093Z,15.80
2019-03-06T16:00:28.198Z,15.70
2019-03-06T16:02:57.917Z,15.70
2019-03-06T16:05:25.123Z,15.70
2019-03-06T16:07:55.421Z,15.60
2019-03-06T16:10:23.388Z,15.50
2019-03-06T16:12:49.648Z,15.50
2019-03-06T16:15:16.228Z,15.50
2019-03-06T16:17:48.395Z,15.50
2019-03-06T16:20:18.315Z,15.50
2019-03-06T16:22:45.584Z,15.40
2019-03-06T16:25:12.277Z,15.40
2019-03-06T16:27:39.978Z,15.30
2019-03-06T16:30:09.688Z,15.30
2019-03-06T16:32:36.005Z,15.30
2019-03-06T16:35:04.032Z,15.20
2019-03-06T16:37:30.403Z,15.30
2019-03-06T16:39:56.690Z,15.20
2019-03-06T16:42:24.815Z,15.20
2019-03-06T16:44:51.235Z,15.10
2019-03-06T16:47:17.904Z,15.10
2019-03-06T16:49:44.275Z,15.20
2019-03-06T16:52:13.498Z,15.10
2019-03-06T16:54:40.954Z,15.10
2019-03-06T16:57:07.526Z,15.00
2019-03-06T16:59:34.561Z,14.90
2019-03-06T17:02:02.097Z,14.90
2019-03-06T17:04:28.536Z,14.80
2019-03-06T17:06:54.657Z,14.70
2019-03-06T17:09:21.194Z,14.60
2019-03-06T17:11:47.332Z,14.50
2019-03-06T17:14:16.706Z,14.50
2019-03-06T17:16:42.991Z,14.40
2019-03-06T17:19:09.521Z,14.40
2019-03-06T17:21:37.171Z,14.40
2019-03-06T17:24:04.938Z,14.30
2019-03-06T17:26:33.415Z,14.40
2019-03-06T17:29:08.630Z,14.30
2019-03-06T17:31:34.858Z,14.30
2019-03-06T17:34:01.124Z,14.30
2019-03-06T17:36:29.488Z,14.30
2019-03-06T17:38:58.926Z,14.30
2019-03-06T17:41:25.614Z,14.30
2019-03-06T17:43:51.822Z,14.30
2019-03-06T17:46:18.182Z,14.30
2019-03-06T17:48:44.690Z,14.20
2019-03-06T17:51:11.102Z,14.20
2019-03-06T17:53:37.506Z,14.20
2019-03-06T17:56:03.747Z,14.20
2019-03-06T17:58:29.934Z,14.20
2019-03-06T18:00:57.939Z,14.20
2019-03-06T18:03:42.850Z,14.10
2019-03-06T18:06:11.108Z,14.10
2019-03-06T18:08:41.159Z,14.00
2019-03-06T18:11:07.637Z,13.90
2019-03-06T18:13:35.960Z,13.90
2019-03-06T18:16:02.332Z,13.80
2019-03-06T18:18:29.570Z,13.80
2019-03-06T18:20:58.032Z,13.70
2019-03-06T18:23:25.460Z,13.60
2019-03-06T18:25:52.133Z,13.60
2019-03-06T18:28:18.200Z,13.50
2019-03-06T18:30:44.704Z,13.50
2019-03-06T18:33:11.000Z,13.40
2019-03-06T18:35:37.555Z,13.30
2019-03-06T18:38:05.538Z,13.30
2019-03-06T18:40:34.809Z,13.20
2019-03-06T18:43:01.303Z,13.20
2019-03-06T18:45:30.216Z,13.10
2019-03-06T18:47:57.503Z,13.10
2019-03-06T18:50:25.191Z,13.00
2019-03-06T18:52:54.028Z,13.00
2019-03-06T18:55:23.841Z,13.00
2019-03-06T18:57:49.931Z,13.10
2019-03-06T19:00:25.545Z,13.10
2019-03-06T19:02:52.604Z,13.10
2019-03-06T19:05:20.539Z,13.10
2019-03-06T19:07:50.688Z,13.00
2019-03-06T19:10:21.732Z,12.90
2019-03-06T19:12:48.575Z,12.90
2019-03-06T19:15:19.051Z,12.80
2019-03-06T19:17:47.277Z,12.70
2019-03-06T19:20:17.978Z,12.60
2019-03-06T19:22:44.309Z,12.50
2019-03-06T19:25:13.645Z,12.50
2019-03-06T19:27:42.658Z,12.40
2019-03-06T19:30:23.362Z,12.30
2019-03-06T19:32:54.923Z,12.30
2019-03-06T19:35:29.454Z,12.30
2019-03-06T19:37:56.371Z,12.20
2019-03-06T19:40:30.939Z,12.20
2019-03-06T19:42:58.087Z,12.20
2019-03-06T19:45:24.931Z,12.10
2019-03-06T19:47:52.522Z,12.10
2019-03-06T19:50:25.604Z,12.10
2019-03-06T19:52:53.182Z,12.10
2019-03-06T19:55:19.960Z,12.10
2019-03-06T19:57:50.144Z,12.10
2019-03-06T20:00:17.967Z,12.00
2019-03-06T20:02:46.834Z,12.00
2019-03-06T20:05:15.930Z,12.00
2019-03-06T20:07:47.062Z,12.10
2019-03-06T20:10:18.050Z,12.10
2019-03-06T20:12:45.757Z,12.10
2019-03-06T20:15:16.760Z,12.10
2019-03-06T20:17:43.075Z,12.10
2019-03-06T20:20:17.695Z,12.10
2019-03-06T20:22:44.492Z,12.10
2019-03-06T20:25:13.726Z,12.00
2019-03-06T20:27:41.201Z,12.00
2019-03-06T20:30:11.313Z,12.00
2019-03-06T20:32:37.897Z,12.00
2019-03-06T20:35:06.545Z,12.20
2019-03-06T20:37:32.894Z,12.20
2019-03-06T20:39:59.480Z,12.10
2019-03-06T20:42:25.835Z,12.00
2019-03-06T20:44:54.625Z,12.00
2019-03-06T20:47:21.591Z,12.00
2019-03-06T20:49:48.093Z,12.00
2019-03-06T20:52:14.503Z,11.90
2019-03-06T20:54:43.088Z,12.00
2019-03-06T20:57:09.429Z,12.00
2019-03-06T20:59:42.565Z,12.10
2019-03-06T21:02:10.048Z,12.10
2019-03-06T21:04:36.473Z,12.20
2019-03-06T21:07:02.739Z,12.20
2019-03-06T21:09:28.969Z,12.20
2019-03-06T21:11:55.137Z,12.20
2019-03-06T21:14:21.199Z,12.10
2019-03-06T21:16:49.375Z,12.10
2019-03-06T21:19:15.869Z,12.10
2019-03-06T21:21:45.138Z,12.10
2019-03-06T21:24:11.439Z,12.10
2019-03-06T21:26:38.310Z,12.00
2019-03-06T21:29:06.892Z,12.00
2019-03-06T21:31:35.871Z,12.10
2019-03-06T21:34:02.459Z,12.10
2019-03-06T21:36:29.153Z,12.10
2019-03-06T21:38:55.221Z,12.00
2019-03-06T21:41:23.831Z,12.00
2019-03-06T21:43:50.132Z,12.00
2019-03-06T21:46:16.650Z,11.90
2019-03-06T21:48:44.688Z,12.00
2019-03-06T21:51:16.479Z,12.10
2019-03-06T21:53:44.485Z,12.10
2019-03-06T21:56:13.747Z,12.10
2019-03-06T21:58:40.317Z,12.10
2019-03-06T22:01:07.335Z,12.20
2019-03-06T22:03:34.211Z,12.10
2019-03-06T22:06:00.467Z,12.20
2019-03-06T22:08:27.164Z,12.20
2019-03-06T22:10:53.302Z,12.20
2019-03-06T22:13:20.518Z,12.20
2019-03-06T22:15:47.153Z,12.10
2019-03-06T22:18:14.307Z,12.10
2019-03-06T22:20:40.707Z,12.20
2019-03-06T22:23:07.015Z,12.10
2019-03-06T22:25:33.060Z,12.10
2019-03-06T22:27:59.457Z,12.20
2019-03-06T22:30:25.515Z,12.20
2019-03-06T22:32:51.674Z,12.30
2019-03-06T22:35:19.526Z,12.40
2019-03-06T22:37:45.972Z,12.40
2019-03-06T22:40:14.257Z,12.40
2019-03-06T22:42:42.488Z,12.30
2019-03-06T22:45:13.051Z,12.30
2019-03-06T22:47:42.009Z,12.30
2019-03-06T22:50:11.917Z,12.30
2019-03-06T22:52:38.122Z,12.20
2019-03-06T22:55:07.844Z,12.20
2019-03-06T22:57:35.079Z,12.10
2019-03-06T23:00:01.465Z,12.10
2019-03-06T23:02:27.800Z,12.00
2019-03-06T23:04:54.964Z,12.00
2019-03-06T23:07:21.775Z,12.00
2019-03-06T23:09:49.744Z,11.90
2019-03-06T23:12:17.428Z,11.90
2019-03-06T23:14:44.387Z,11.80
2019-03-06T23:17:10.471Z,11.80
2019-03-06T23:19:38.442Z,11.70
2019-03-06T23:22:04.530Z,11.70
2019-03-06T23:24:30.674Z,11.70
2019-03-06T23:26:56.860Z,11.70
2019-03-06T23:29:26.477Z,11.70
2019-03-06T23:31:54.582Z,11.70
2019-03-06T23:34:20.791Z,11.70
2019-03-06T23:36:46.937Z,11.70
2019-03-06T23:39:16.038Z,11.70
2019-03-06T23:41:43.281Z,11.80
2019-03-06T23:44:09.947Z,11.70
2019-03-06T23:46:37.382Z,11.70
2019-03-06T23:49:04.878Z,11.70
2019-03-06T23:51:31.804Z,11.80
2019-03-06T23:53:58.031Z,11.80
2019-03-06T23:56:24.076Z,11.80
2019-03-06T23:58:51.872Z,11.80
